AWC92J EHRD-LIBD
Flight info
| Callsign | AWC92J |
|---|---|
| Flight time | 1h 57m |
| Altitude | 35000 |
| Route | WOODY N872 NIK M624 DIK N852 GTQ DCT TRA Z652 KESEX DCT MANEG L613 VALAV DCT ALBET DCT BELOV DCT ERITU DCT RUPAX DCT PISIP |
| Aircraft | A320/M-SDE3FGHIRWY/LB1 |
Departure
| Time | 2026-04-22 18:19 |
|---|---|
| Airport | Rotterdam The Hague Airport (EHRD) |
Arrival
| Time | 2026-04-22 20:16 |
|---|---|
| Airport | Bari Karol Wojtyła International Airport (LIBD) |
| Time | Latitude | Longitude | Altitude | Speed | Heading |
|---|---|---|---|---|---|
| 2026-04-22 18:04 | 51.95041 | 4.43559 | 2 ft | 0 kts | 327° |
| 2026-04-22 18:15 | 51.95044 | 4.43556 | 1 ft | 1 kts | 327° |
| 2026-04-22 18:15 | 51.95056 | 4.43544 | 1 ft | 3 kts | 328° |
| 2026-04-22 18:15 | 51.95077 | 4.43551 | 1 ft | 4 kts | 33° |
| 2026-04-22 18:16 | 51.95107 | 4.43575 | 1 ft | 6 kts | 358° |
| 2026-04-22 18:16 | 51.95146 | 4.43538 | 1 ft | 8 kts | 322° |
| 2026-04-22 18:16 | 51.95194 | 4.43480 | 1 ft | 10 kts | 323° |
| 2026-04-22 18:16 | 51.95241 | 4.43425 | 1 ft | 8 kts | 310° |
| 2026-04-22 18:17 | 51.95220 | 4.43348 | 1 ft | 9 kts | 234° |
| 2026-04-22 18:17 | 51.95186 | 4.43262 | 1 ft | 9 kts | 239° |
| 2026-04-22 18:17 | 51.95150 | 4.43164 | 1 ft | 11 kts | 241° |
| 2026-04-22 18:17 | 51.95126 | 4.43084 | 1 ft | 6 kts | 245° |
| 2026-04-22 18:18 | 51.95105 | 4.43006 | 1 ft | 9 kts | 257° |
| 2026-04-22 18:18 | 51.95141 | 4.42915 | 1 ft | 11 kts | 325° |
| 2026-04-22 18:18 | 51.95212 | 4.42855 | 2 ft | 12 kts | 2° |
| 2026-04-22 18:18 | 51.95271 | 4.42969 | 2 ft | 21 kts | 57° |
| 2026-04-22 18:19 | 51.95446 | 4.43409 | 0 ft | 79 kts | 57° |
| 2026-04-22 18:19 | 51.95850 | 4.44414 | 0 ft | 131 kts | 56° |
| 2026-04-22 18:19 | 51.96391 | 4.45730 | 395 ft | 139 kts | 55° |
| 2026-04-22 18:19 | 51.96907 | 4.47051 | 1003 ft | 137 kts | 58° |
| 2026-04-22 18:20 | 51.97423 | 4.48372 | 1447 ft | 144 kts | 59° |
| 2026-04-22 18:20 | 51.97980 | 4.49838 | 1697 ft | 163 kts | 59° |
| 2026-04-22 18:20 | 51.98596 | 4.51541 | 1903 ft | 186 kts | 64° |
| 2026-04-22 18:20 | 51.99118 | 4.53539 | 2185 ft | 208 kts | 67° |
| 2026-04-22 18:21 | 51.99763 | 4.55810 | 2582 ft | 231 kts | 66° |
| 2026-04-22 18:21 | 52.00458 | 4.58223 | 3316 ft | 239 kts | 71° |
| 2026-04-22 18:21 | 52.00591 | 4.60900 | 4026 ft | 245 kts | 105° |
| 2026-04-22 18:21 | 51.99680 | 4.63206 | 4783 ft | 254 kts | 138° |
| 2026-04-22 18:22 | 51.98159 | 4.64786 | 5233 ft | 263 kts | 151° |
| 2026-04-22 18:22 | 51.96461 | 4.65886 | 5356 ft | 265 kts | 165° |
| 2026-04-22 18:22 | 51.94606 | 4.66302 | 6035 ft | 269 kts | 170° |
| 2026-04-22 18:22 | 51.92745 | 4.66679 | 6912 ft | 270 kts | 170° |
| 2026-04-22 18:23 | 51.90870 | 4.67067 | 7689 ft | 273 kts | 169° |
| 2026-04-22 18:23 | 51.88967 | 4.67461 | 8439 ft | 277 kts | 170° |
| 2026-04-22 18:23 | 51.87072 | 4.67853 | 9155 ft | 282 kts | 170° |
| 2026-04-22 18:24 | 51.83122 | 4.68654 | 10567 ft | 291 kts | 170° |
| 2026-04-22 18:24 | 51.81036 | 4.69075 | 10775 ft | 313 kts | 169° |
| 2026-04-22 18:24 | 51.76406 | 4.70013 | 11038 ft | 356 kts | 170° |
| 2026-04-22 18:25 | 51.73876 | 4.70518 | 11155 ft | 375 kts | 170° |
| 2026-04-22 18:25 | 51.71224 | 4.71043 | 11307 ft | 392 kts | 171° |
| 2026-04-22 18:25 | 51.68490 | 4.71578 | 11748 ft | 399 kts | 171° |
| 2026-04-22 18:26 | 51.62922 | 4.72665 | 12845 ft | 407 kts | 171° |
| 2026-04-22 18:26 | 51.60095 | 4.73222 | 13417 ft | 411 kts | 171° |
| 2026-04-22 18:26 | 51.57248 | 4.73784 | 13991 ft | 415 kts | 171° |
| 2026-04-22 18:26 | 51.54360 | 4.74354 | 14514 ft | 419 kts | 171° |
| 2026-04-22 18:27 | 51.51456 | 4.74928 | 14996 ft | 423 kts | 171° |
| 2026-04-22 18:27 | 51.48522 | 4.75507 | 15468 ft | 426 kts | 171° |
| 2026-04-22 18:27 | 51.45608 | 4.76079 | 15934 ft | 429 kts | 170° |
| 2026-04-22 18:27 | 51.42632 | 4.76663 | 16393 ft | 432 kts | 170° |
| 2026-04-22 18:28 | 51.39636 | 4.77259 | 16850 ft | 435 kts | 169° |
| 2026-04-22 18:28 | 51.36728 | 4.78516 | 17258 ft | 434 kts | 153° |
| 2026-04-22 18:28 | 51.34039 | 4.80711 | 17640 ft | 436 kts | 148° |
| 2026-04-22 18:28 | 51.31356 | 4.83013 | 18051 ft | 439 kts | 148° |
| 2026-04-22 18:29 | 51.28654 | 4.85339 | 18473 ft | 442 kts | 148° |
| 2026-04-22 18:29 | 51.25936 | 4.87675 | 18851 ft | 445 kts | 148° |
| 2026-04-22 18:29 | 51.23194 | 4.90022 | 19230 ft | 448 kts | 148° |
| 2026-04-22 18:29 | 51.20436 | 4.92375 | 19620 ft | 450 kts | 148° |
| 2026-04-22 18:30 | 51.17669 | 4.94730 | 19995 ft | 452 kts | 148° |
| 2026-04-22 18:30 | 51.12087 | 4.99473 | 20688 ft | 457 kts | 148° |
| 2026-04-22 18:30 | 51.09272 | 5.01858 | 21020 ft | 459 kts | 148° |
| 2026-04-22 18:31 | 51.06446 | 5.04245 | 21328 ft | 461 kts | 148° |
| 2026-04-22 18:31 | 51.03603 | 5.06646 | 21620 ft | 463 kts | 148° |
| 2026-04-22 18:31 | 51.00752 | 5.09055 | 21917 ft | 465 kts | 148° |
| 2026-04-22 18:31 | 50.97901 | 5.11461 | 22336 ft | 464 kts | 149° |
| 2026-04-22 18:32 | 50.95051 | 5.13861 | 22760 ft | 463 kts | 149° |
| 2026-04-22 18:32 | 50.92202 | 5.16254 | 23169 ft | 463 kts | 149° |
| 2026-04-22 18:32 | 50.89394 | 5.18611 | 23599 ft | 462 kts | 149° |
| 2026-04-22 18:32 | 50.86551 | 5.20995 | 23992 ft | 462 kts | 149° |
| 2026-04-22 18:33 | 50.83709 | 5.23372 | 24349 ft | 462 kts | 149° |
| 2026-04-22 18:33 | 50.80865 | 5.25751 | 24719 ft | 462 kts | 149° |
| 2026-04-22 18:33 | 50.78027 | 5.28124 | 25093 ft | 461 kts | 149° |
| 2026-04-22 18:33 | 50.75192 | 5.30495 | 25479 ft | 461 kts | 149° |
| 2026-04-22 18:34 | 50.72357 | 5.32863 | 25853 ft | 461 kts | 149° |
| 2026-04-22 18:34 | 50.69516 | 5.35229 | 26238 ft | 461 kts | 149° |
| 2026-04-22 18:34 | 50.66673 | 5.37585 | 26628 ft | 461 kts | 149° |
| 2026-04-22 18:34 | 50.63829 | 5.39935 | 27032 ft | 461 kts | 149° |
| 2026-04-22 18:35 | 50.60995 | 5.42273 | 27444 ft | 461 kts | 149° |
| 2026-04-22 18:35 | 50.58154 | 5.44620 | 27857 ft | 461 kts | 149° |
| 2026-04-22 18:35 | 50.55319 | 5.46964 | 28271 ft | 460 kts | 150° |
| 2026-04-22 18:35 | 50.52485 | 5.49303 | 28695 ft | 460 kts | 150° |
| 2026-04-22 18:36 | 50.49652 | 5.51640 | 29089 ft | 461 kts | 150° |
| 2026-04-22 18:36 | 50.46808 | 5.53983 | 29461 ft | 461 kts | 150° |
| 2026-04-22 18:36 | 50.43968 | 5.56321 | 29913 ft | 461 kts | 150° |
| 2026-04-22 18:36 | 50.41133 | 5.58647 | 30382 ft | 459 kts | 150° |
| 2026-04-22 18:37 | 50.38299 | 5.60968 | 30772 ft | 459 kts | 150° |
| 2026-04-22 18:37 | 50.35470 | 5.63281 | 31124 ft | 459 kts | 150° |
| 2026-04-22 18:37 | 50.33597 | 5.64812 | 31360 ft | 459 kts | 150° |
| 2026-04-22 18:37 | 50.29808 | 5.67906 | 31843 ft | 459 kts | 150° |
| 2026-04-22 18:38 | 50.26978 | 5.70213 | 32196 ft | 459 kts | 150° |
| 2026-04-22 18:38 | 50.24141 | 5.72520 | 32530 ft | 460 kts | 150° |
| 2026-04-22 18:38 | 50.21278 | 5.74846 | 32876 ft | 460 kts | 150° |
| 2026-04-22 18:39 | 50.15612 | 5.79436 | 33569 ft | 461 kts | 150° |
| 2026-04-22 18:39 | 50.12752 | 5.81746 | 33726 ft | 466 kts | 150° |
| 2026-04-22 18:39 | 50.09857 | 5.84086 | 33865 ft | 470 kts | 150° |
| 2026-04-22 18:39 | 50.06940 | 5.86444 | 33999 ft | 475 kts | 150° |
| 2026-04-22 18:40 | 50.03996 | 5.88821 | 34134 ft | 479 kts | 151° |
| 2026-04-22 18:40 | 50.01064 | 5.91185 | 34267 ft | 482 kts | 151° |
| 2026-04-22 18:40 | 49.98073 | 5.93585 | 34410 ft | 485 kts | 151° |
| 2026-04-22 18:40 | 49.95063 | 5.95997 | 34528 ft | 487 kts | 151° |
| 2026-04-22 18:41 | 49.92051 | 5.98411 | 34648 ft | 488 kts | 151° |
| 2026-04-22 18:41 | 49.89037 | 6.00827 | 34753 ft | 488 kts | 151° |
| 2026-04-22 18:41 | 49.86021 | 6.03238 | 34868 ft | 488 kts | 151° |
| 2026-04-22 18:41 | 49.82997 | 6.05650 | 34987 ft | 488 kts | 151° |
| 2026-04-22 18:42 | 49.79980 | 6.08051 | 35102 ft | 488 kts | 151° |
| 2026-04-22 18:42 | 49.76962 | 6.10452 | 35250 ft | 488 kts | 151° |
| 2026-04-22 18:42 | 49.70912 | 6.15263 | 35301 ft | 488 kts | 151° |
| 2026-04-22 18:43 | 49.64867 | 6.20052 | 35301 ft | 488 kts | 152° |
| 2026-04-22 18:43 | 49.58822 | 6.24817 | 35301 ft | 488 kts | 152° |
| 2026-04-22 18:44 | 49.52761 | 6.29588 | 35312 ft | 489 kts | 152° |
| 2026-04-22 18:44 | 49.46709 | 6.34347 | 35297 ft | 489 kts | 152° |
| 2026-04-22 18:45 | 49.40654 | 6.39095 | 35299 ft | 489 kts | 152° |
| 2026-04-22 18:45 | 49.34587 | 6.43832 | 35304 ft | 489 kts | 152° |
| 2026-04-22 18:46 | 49.28511 | 6.48553 | 35293 ft | 490 kts | 152° |
| 2026-04-22 18:46 | 49.22422 | 6.53288 | 35291 ft | 491 kts | 152° |
| 2026-04-22 18:47 | 49.16334 | 6.58011 | 35296 ft | 491 kts | 152° |
| 2026-04-22 18:47 | 49.10224 | 6.62733 | 35288 ft | 492 kts | 153° |
| 2026-04-22 18:48 | 49.04101 | 6.67429 | 35304 ft | 493 kts | 153° |
| 2026-04-22 18:48 | 48.98182 | 6.72517 | 35299 ft | 491 kts | 142° |
| 2026-04-22 18:49 | 48.93045 | 6.79332 | 35292 ft | 490 kts | 136° |
| 2026-04-22 18:49 | 48.87973 | 6.86262 | 35292 ft | 490 kts | 136° |
| 2026-04-22 18:50 | 48.82882 | 6.93184 | 35272 ft | 492 kts | 136° |
| 2026-04-22 18:50 | 48.77785 | 7.00120 | 35303 ft | 493 kts | 136° |
| 2026-04-22 18:51 | 48.72680 | 7.07053 | 35305 ft | 492 kts | 136° |
| 2026-04-22 18:51 | 48.67581 | 7.13955 | 35299 ft | 492 kts | 136° |
| 2026-04-22 18:52 | 48.62477 | 7.20852 | 35304 ft | 492 kts | 136° |
| 2026-04-22 18:52 | 48.57371 | 7.27725 | 35298 ft | 491 kts | 136° |
| 2026-04-22 18:53 | 48.53123 | 7.33427 | 35301 ft | 491 kts | 136° |
| 2026-04-22 18:53 | 48.48015 | 7.40268 | 35312 ft | 490 kts | 136° |
| 2026-04-22 18:54 | 48.42920 | 7.47059 | 35298 ft | 489 kts | 136° |
| 2026-04-22 18:54 | 48.37819 | 7.53835 | 35262 ft | 490 kts | 137° |
| 2026-04-22 18:55 | 48.32699 | 7.60621 | 35257 ft | 491 kts | 137° |
| 2026-04-22 18:55 | 48.27571 | 7.67406 | 35256 ft | 492 kts | 137° |
| 2026-04-22 18:56 | 48.22442 | 7.74200 | 35289 ft | 492 kts | 136° |
| 2026-04-22 18:56 | 48.17311 | 7.80970 | 35287 ft | 491 kts | 137° |
| 2026-04-22 18:57 | 48.12168 | 7.87709 | 35278 ft | 492 kts | 137° |
| 2026-04-22 18:57 | 48.07009 | 7.94440 | 35284 ft | 492 kts | 137° |
| 2026-04-22 18:58 | 48.01855 | 8.01174 | 35296 ft | 493 kts | 137° |
| 2026-04-22 18:58 | 47.96689 | 8.07906 | 35297 ft | 493 kts | 137° |
| 2026-04-22 18:59 | 47.91551 | 8.14578 | 35280 ft | 494 kts | 137° |
| 2026-04-22 18:59 | 47.86351 | 8.21306 | 35284 ft | 495 kts | 137° |
| 2026-04-22 19:00 | 47.81140 | 8.28035 | 35275 ft | 496 kts | 137° |
| 2026-04-22 19:00 | 47.75919 | 8.34764 | 35282 ft | 497 kts | 138° |
| 2026-04-22 19:01 | 47.70645 | 8.41421 | 35287 ft | 498 kts | 142° |
| 2026-04-22 19:01 | 47.64601 | 8.46412 | 35278 ft | 499 kts | 158° |
| 2026-04-22 19:02 | 47.58188 | 8.50360 | 35267 ft | 499 kts | 158° |
| 2026-04-22 19:02 | 47.51773 | 8.54304 | 35263 ft | 499 kts | 158° |
| 2026-04-22 19:03 | 47.45357 | 8.58245 | 35250 ft | 500 kts | 158° |
| 2026-04-22 19:03 | 47.38926 | 8.62200 | 35245 ft | 501 kts | 158° |
| 2026-04-22 19:04 | 47.32490 | 8.66148 | 35249 ft | 501 kts | 158° |
| 2026-04-22 19:04 | 47.26188 | 8.70535 | 35239 ft | 502 kts | 147° |
| 2026-04-22 19:05 | 47.20883 | 8.77049 | 35251 ft | 500 kts | 129° |
| 2026-04-22 19:05 | 47.17088 | 8.85512 | 35250 ft | 494 kts | 111° |
| 2026-04-22 19:06 | 47.14605 | 8.94961 | 35252 ft | 493 kts | 108° |
| 2026-04-22 19:07 | 47.10749 | 9.08993 | 35266 ft | 494 kts | 109° |
| 2026-04-22 19:07 | 47.08166 | 9.18257 | 35264 ft | 494 kts | 109° |
| 2026-04-22 19:08 | 47.05596 | 9.27593 | 35254 ft | 493 kts | 109° |
| 2026-04-22 19:08 | 47.03033 | 9.36908 | 35249 ft | 492 kts | 109° |
| 2026-04-22 19:09 | 47.00460 | 9.46211 | 35250 ft | 493 kts | 109° |
| 2026-04-22 19:09 | 46.97870 | 9.55504 | 35239 ft | 492 kts | 109° |
| 2026-04-22 19:10 | 46.95271 | 9.64790 | 35233 ft | 493 kts | 109° |
| 2026-04-22 19:10 | 46.92668 | 9.74077 | 35225 ft | 494 kts | 109° |
| 2026-04-22 19:11 | 46.90060 | 9.83371 | 35229 ft | 494 kts | 109° |
| 2026-04-22 19:11 | 46.87438 | 9.92656 | 35249 ft | 494 kts | 110° |
| 2026-04-22 19:12 | 46.84805 | 10.01926 | 35223 ft | 493 kts | 109° |
| 2026-04-22 19:12 | 46.82164 | 10.11161 | 35219 ft | 492 kts | 110° |
| 2026-04-22 19:13 | 46.79290 | 10.20245 | 35220 ft | 495 kts | 120° |
| 2026-04-22 19:13 | 46.74887 | 10.27913 | 35229 ft | 498 kts | 138° |
| 2026-04-22 19:14 | 46.69151 | 10.33544 | 35206 ft | 498 kts | 149° |
| 2026-04-22 19:14 | 46.63183 | 10.38697 | 35183 ft | 499 kts | 149° |
| 2026-04-22 19:15 | 46.58271 | 10.43149 | 35178 ft | 500 kts | 146° |
| 2026-04-22 19:15 | 46.51520 | 10.49717 | 35172 ft | 500 kts | 145° |
| 2026-04-22 19:16 | 46.45738 | 10.55357 | 35188 ft | 501 kts | 146° |
| 2026-04-22 19:16 | 46.39906 | 10.60894 | 35177 ft | 502 kts | 147° |
| 2026-04-22 19:17 | 46.34043 | 10.66389 | 35183 ft | 502 kts | 147° |
| 2026-04-22 19:17 | 46.28208 | 10.71862 | 35187 ft | 503 kts | 147° |
| 2026-04-22 19:18 | 46.22342 | 10.77382 | 35200 ft | 503 kts | 147° |
| 2026-04-22 19:18 | 46.16476 | 10.82895 | 35226 ft | 503 kts | 146° |
| 2026-04-22 19:19 | 46.10611 | 10.88380 | 35234 ft | 501 kts | 147° |
| 2026-04-22 19:19 | 46.04765 | 10.93834 | 35231 ft | 500 kts | 147° |
| 2026-04-22 19:20 | 45.98910 | 10.99288 | 35207 ft | 502 kts | 147° |
| 2026-04-22 19:20 | 45.93027 | 11.04739 | 35193 ft | 503 kts | 147° |
| 2026-04-22 19:21 | 45.87129 | 11.10198 | 35219 ft | 504 kts | 147° |
| 2026-04-22 19:21 | 45.81229 | 11.15654 | 35218 ft | 505 kts | 147° |
| 2026-04-22 19:22 | 45.75345 | 11.21073 | 35204 ft | 506 kts | 147° |
| 2026-04-22 19:22 | 45.69411 | 11.26517 | 35205 ft | 507 kts | 147° |
| 2026-04-22 19:23 | 45.63469 | 11.31962 | 35206 ft | 507 kts | 147° |
| 2026-04-22 19:23 | 45.57525 | 11.37397 | 35186 ft | 508 kts | 148° |
| 2026-04-22 19:24 | 45.51558 | 11.42841 | 35185 ft | 509 kts | 148° |
| 2026-04-22 19:24 | 45.45587 | 11.48267 | 35193 ft | 509 kts | 148° |
| 2026-04-22 19:25 | 45.40917 | 11.53356 | 35202 ft | 509 kts | 135° |
| 2026-04-22 19:25 | 45.35000 | 11.61614 | 35173 ft | 510 kts | 135° |
| 2026-04-22 19:26 | 45.29909 | 11.68647 | 35215 ft | 511 kts | 135° |
| 2026-04-22 19:26 | 45.24837 | 11.75633 | 35205 ft | 511 kts | 135° |
| 2026-04-22 19:27 | 45.19741 | 11.82663 | 35201 ft | 511 kts | 135° |
| 2026-04-22 19:27 | 45.14646 | 11.89677 | 35196 ft | 511 kts | 135° |
| 2026-04-22 19:28 | 45.09534 | 11.96691 | 35188 ft | 512 kts | 135° |
| 2026-04-22 19:28 | 45.04406 | 12.03704 | 35214 ft | 512 kts | 136° |
| 2026-04-22 19:29 | 44.99279 | 12.10696 | 35209 ft | 512 kts | 136° |
| 2026-04-22 19:29 | 44.94148 | 12.17676 | 35198 ft | 512 kts | 136° |
| 2026-04-22 19:30 | 44.89870 | 12.23482 | 35181 ft | 513 kts | 136° |
| 2026-04-22 19:30 | 44.83848 | 12.31623 | 35195 ft | 513 kts | 136° |
| 2026-04-22 19:31 | 44.78723 | 12.38543 | 35197 ft | 514 kts | 136° |
| 2026-04-22 19:31 | 44.73554 | 12.45503 | 35202 ft | 514 kts | 136° |
| 2026-04-22 19:32 | 44.68380 | 12.52455 | 35200 ft | 514 kts | 136° |
| 2026-04-22 19:32 | 44.63209 | 12.59393 | 35208 ft | 515 kts | 136° |
| 2026-04-22 19:33 | 44.58019 | 12.66327 | 35208 ft | 515 kts | 136° |
| 2026-04-22 19:33 | 44.52817 | 12.73241 | 35212 ft | 515 kts | 136° |
| 2026-04-22 19:34 | 44.47594 | 12.80111 | 35212 ft | 515 kts | 137° |
| 2026-04-22 19:34 | 44.42375 | 12.86919 | 35204 ft | 516 kts | 137° |
| 2026-04-22 19:35 | 44.37118 | 12.93761 | 35201 ft | 517 kts | 137° |
| 2026-04-22 19:35 | 44.32709 | 12.99510 | 35201 ft | 517 kts | 137° |
| 2026-04-22 19:36 | 44.26590 | 13.07478 | 35206 ft | 518 kts | 137° |
| 2026-04-22 19:36 | 44.21314 | 13.14310 | 35220 ft | 518 kts | 138° |
| 2026-04-22 19:37 | 44.16017 | 13.21141 | 35205 ft | 518 kts | 138° |
| 2026-04-22 19:37 | 44.10726 | 13.27959 | 35206 ft | 519 kts | 138° |
| 2026-04-22 19:38 | 44.05423 | 13.34783 | 35220 ft | 519 kts | 138° |
| 2026-04-22 19:38 | 44.00124 | 13.41586 | 35210 ft | 519 kts | 138° |
| 2026-04-22 19:39 | 43.94845 | 13.48329 | 35208 ft | 519 kts | 138° |
| 2026-04-22 19:39 | 43.89525 | 13.55108 | 35216 ft | 519 kts | 138° |
| 2026-04-22 19:40 | 43.85066 | 13.60790 | 35215 ft | 519 kts | 138° |
| 2026-04-22 19:40 | 43.79864 | 13.67401 | 35210 ft | 519 kts | 138° |
| 2026-04-22 19:41 | 43.74541 | 13.74148 | 35190 ft | 519 kts | 139° |
| 2026-04-22 19:41 | 43.69204 | 13.80892 | 35188 ft | 520 kts | 139° |
| 2026-04-22 19:42 | 43.63859 | 13.87627 | 35210 ft | 520 kts | 139° |
| 2026-04-22 19:42 | 43.58511 | 13.94344 | 35204 ft | 520 kts | 139° |
| 2026-04-22 19:43 | 43.50473 | 14.04427 | 35173 ft | 522 kts | 139° |
| 2026-04-22 19:43 | 43.45093 | 14.11149 | 35173 ft | 522 kts | 139° |
| 2026-04-22 19:44 | 43.39682 | 14.17824 | 35176 ft | 523 kts | 140° |
| 2026-04-22 19:44 | 43.34204 | 14.24407 | 35204 ft | 523 kts | 140° |
| 2026-04-22 19:45 | 43.28715 | 14.30970 | 35174 ft | 524 kts | 141° |
| 2026-04-22 19:45 | 43.23220 | 14.37561 | 35167 ft | 525 kts | 141° |
| 2026-04-22 19:46 | 43.17728 | 14.44165 | 35173 ft | 526 kts | 141° |
| 2026-04-22 19:46 | 43.12265 | 14.50727 | 35167 ft | 526 kts | 141° |
| 2026-04-22 19:47 | 43.06749 | 14.57315 | 35140 ft | 527 kts | 141° |
| 2026-04-22 19:47 | 43.01210 | 14.63898 | 35137 ft | 529 kts | 141° |
| 2026-04-22 19:48 | 42.95649 | 14.70497 | 35142 ft | 530 kts | 141° |
| 2026-04-22 19:48 | 42.90083 | 14.77102 | 35154 ft | 531 kts | 141° |
| 2026-04-22 19:49 | 42.84500 | 14.83696 | 35119 ft | 531 kts | 142° |
| 2026-04-22 19:49 | 42.78907 | 14.90283 | 35127 ft | 532 kts | 142° |
| 2026-04-22 19:50 | 42.73293 | 14.96871 | 35159 ft | 533 kts | 142° |
| 2026-04-22 19:50 | 42.67681 | 15.03462 | 35153 ft | 533 kts | 142° |
| 2026-04-22 19:51 | 42.62096 | 15.10007 | 35115 ft | 534 kts | 142° |
| 2026-04-22 19:51 | 42.56472 | 15.16588 | 35127 ft | 534 kts | 143° |
| 2026-04-22 19:52 | 42.50834 | 15.23158 | 35137 ft | 534 kts | 143° |
| 2026-04-22 19:52 | 42.45186 | 15.29705 | 35159 ft | 535 kts | 143° |
| 2026-04-22 19:53 | 42.39526 | 15.36253 | 35123 ft | 535 kts | 143° |
| 2026-04-22 19:53 | 42.36695 | 15.39532 | 34844 ft | 535 kts | 143° |
| 2026-04-22 19:53 | 42.33866 | 15.42804 | 34603 ft | 536 kts | 143° |
| 2026-04-22 19:54 | 42.31024 | 15.46092 | 34371 ft | 538 kts | 142° |
| 2026-04-22 19:54 | 42.28401 | 15.49735 | 34132 ft | 544 kts | 134° |
| 2026-04-22 19:54 | 42.25902 | 15.53584 | 33860 ft | 546 kts | 134° |
| 2026-04-22 19:54 | 42.23400 | 15.57443 | 33583 ft | 547 kts | 134° |
| 2026-04-22 19:55 | 42.20892 | 15.61304 | 32922 ft | 548 kts | 134° |
| 2026-04-22 19:55 | 42.18362 | 15.65189 | 31952 ft | 552 kts | 135° |
| 2026-04-22 19:55 | 42.15815 | 15.69092 | 30975 ft | 555 kts | 135° |
| 2026-04-22 19:55 | 42.13259 | 15.73003 | 29965 ft | 557 kts | 134° |
| 2026-04-22 19:56 | 42.10692 | 15.76925 | 28865 ft | 559 kts | 134° |
| 2026-04-22 19:56 | 42.08116 | 15.80847 | 27756 ft | 560 kts | 134° |
| 2026-04-22 19:56 | 42.05536 | 15.84768 | 26583 ft | 561 kts | 134° |
| 2026-04-22 19:56 | 42.02940 | 15.88717 | 25268 ft | 565 kts | 134° |
| 2026-04-22 19:57 | 42.00335 | 15.92679 | 24064 ft | 566 kts | 134° |
| 2026-04-22 19:57 | 41.97728 | 15.96641 | 22942 ft | 562 kts | 133° |
| 2026-04-22 19:57 | 41.95171 | 16.00522 | 22271 ft | 548 kts | 133° |
| 2026-04-22 19:57 | 41.92670 | 16.04309 | 21477 ft | 537 kts | 133° |
| 2026-04-22 19:58 | 41.90246 | 16.07963 | 20715 ft | 526 kts | 133° |
| 2026-04-22 19:58 | 41.87842 | 16.11586 | 19942 ft | 512 kts | 133° |
| 2026-04-22 19:58 | 41.85514 | 16.15098 | 18648 ft | 497 kts | 132° |
| 2026-04-22 19:58 | 41.83253 | 16.18504 | 17375 ft | 480 kts | 132° |
| 2026-04-22 19:59 | 41.81064 | 16.21795 | 16233 ft | 463 kts | 131° |
| 2026-04-22 20:00 | 41.69075 | 16.39760 | 12342 ft | 422 kts | 131° |
| 2026-04-22 20:00 | 41.67132 | 16.42673 | 11676 ft | 418 kts | 131° |
| 2026-04-22 20:01 | 41.65214 | 16.45537 | 11337 ft | 405 kts | 131° |
| 2026-04-22 20:01 | 41.63375 | 16.48275 | 11202 ft | 386 kts | 131° |
| 2026-04-22 20:01 | 41.61619 | 16.50885 | 11074 ft | 370 kts | 131° |
| 2026-04-22 20:01 | 41.59934 | 16.53386 | 10945 ft | 355 kts | 131° |
| 2026-04-22 20:02 | 41.58313 | 16.55794 | 10820 ft | 342 kts | 131° |
| 2026-04-22 20:02 | 41.56744 | 16.58120 | 10693 ft | 331 kts | 131° |
| 2026-04-22 20:02 | 41.55228 | 16.60372 | 10562 ft | 321 kts | 131° |
| 2026-04-22 20:02 | 41.53756 | 16.62554 | 10399 ft | 314 kts | 130° |
| 2026-04-22 20:03 | 41.52296 | 16.64681 | 10258 ft | 315 kts | 132° |
| 2026-04-22 20:03 | 41.50770 | 16.66762 | 10114 ft | 312 kts | 134° |
| 2026-04-22 20:03 | 41.49223 | 16.68792 | 9771 ft | 314 kts | 135° |
| 2026-04-22 20:03 | 41.47653 | 16.70825 | 9359 ft | 314 kts | 135° |
| 2026-04-22 20:04 | 41.46101 | 16.72832 | 9104 ft | 308 kts | 135° |
| 2026-04-22 20:04 | 41.44574 | 16.74817 | 8469 ft | 306 kts | 134° |
| 2026-04-22 20:04 | 41.43066 | 16.76790 | 7957 ft | 303 kts | 134° |
| 2026-04-22 20:04 | 41.41558 | 16.78772 | 7587 ft | 303 kts | 134° |
| 2026-04-22 20:05 | 41.40063 | 16.80742 | 7132 ft | 306 kts | 134° |
| 2026-04-22 20:05 | 41.38556 | 16.82727 | 6877 ft | 302 kts | 134° |
| 2026-04-22 20:05 | 41.37061 | 16.84691 | 6540 ft | 302 kts | 134° |
| 2026-04-22 20:05 | 41.35581 | 16.86635 | 6271 ft | 297 kts | 134° |
| 2026-04-22 20:06 | 41.34118 | 16.88554 | 5704 ft | 294 kts | 133° |
| 2026-04-22 20:06 | 41.32709 | 16.90397 | 5555 ft | 274 kts | 134° |
| 2026-04-22 20:06 | 41.31553 | 16.92292 | 5288 ft | 257 kts | 113° |
| 2026-04-22 20:06 | 41.31021 | 16.94501 | 4984 ft | 246 kts | 90° |
| 2026-04-22 20:07 | 41.31095 | 16.96669 | 4925 ft | 234 kts | 71° |
| 2026-04-22 20:07 | 41.31620 | 16.98730 | 4859 ft | 232 kts | 65° |
| 2026-04-22 20:07 | 41.32182 | 17.00720 | 4808 ft | 233 kts | 63° |
| 2026-04-22 20:07 | 41.32756 | 17.02763 | 4752 ft | 233 kts | 63° |
| 2026-04-22 20:08 | 41.33311 | 17.04749 | 4696 ft | 232 kts | 66° |
| 2026-04-22 20:08 | 41.33873 | 17.06773 | 4655 ft | 233 kts | 65° |
| 2026-04-22 20:08 | 41.34435 | 17.08802 | 4563 ft | 233 kts | 67° |
| 2026-04-22 20:08 | 41.34874 | 17.10869 | 4419 ft | 233 kts | 80° |
| 2026-04-22 20:09 | 41.34653 | 17.12991 | 4293 ft | 235 kts | 110° |
| 2026-04-22 20:09 | 41.33683 | 17.14767 | 4167 ft | 241 kts | 141° |
| 2026-04-22 20:09 | 41.32196 | 17.15704 | 4031 ft | 238 kts | 172° |
| 2026-04-22 20:09 | 41.30576 | 17.15582 | 3936 ft | 230 kts | 203° |
| 2026-04-22 20:10 | 41.29254 | 17.14589 | 4004 ft | 215 kts | 223° |
| 2026-04-22 20:10 | 41.28072 | 17.13446 | 4024 ft | 199 kts | 221° |
| 2026-04-22 20:10 | 41.27015 | 17.12439 | 3985 ft | 176 kts | 221° |
| 2026-04-22 20:10 | 41.26051 | 17.11515 | 3984 ft | 174 kts | 224° |
| 2026-04-22 20:11 | 41.24994 | 17.10469 | 3980 ft | 203 kts | 223° |
| 2026-04-22 20:11 | 41.23790 | 17.09279 | 4005 ft | 226 kts | 222° |
| 2026-04-22 20:11 | 41.22538 | 17.07988 | 3989 ft | 227 kts | 230° |
| 2026-04-22 20:11 | 41.21593 | 17.06354 | 3983 ft | 221 kts | 246° |
| 2026-04-22 20:12 | 41.21071 | 17.04429 | 3573 ft | 222 kts | 265° |
| 2026-04-22 20:12 | 41.20791 | 17.02471 | 3510 ft | 217 kts | 265° |
| 2026-04-22 20:12 | 41.20594 | 17.01154 | 3469 ft | 212 kts | 265° |
| 2026-04-22 20:12 | 41.20211 | 16.98718 | 3373 ft | 197 kts | 263° |
| 2026-04-22 20:13 | 41.19745 | 16.97000 | 3149 ft | 198 kts | 256° |
| 2026-04-22 20:13 | 41.19263 | 16.95292 | 2873 ft | 197 kts | 258° |
| 2026-04-22 20:13 | 41.18788 | 16.93600 | 2613 ft | 194 kts | 257° |
| 2026-04-22 20:13 | 41.18319 | 16.91934 | 2370 ft | 191 kts | 258° |
| 2026-04-22 20:14 | 41.17854 | 16.90283 | 2128 ft | 190 kts | 257° |
| 2026-04-22 20:14 | 41.17394 | 16.88649 | 1880 ft | 189 kts | 256° |
| 2026-04-22 20:14 | 41.16936 | 16.87027 | 1643 ft | 186 kts | 258° |
| 2026-04-22 20:14 | 41.16484 | 16.85422 | 1429 ft | 186 kts | 256° |
| 2026-04-22 20:15 | 41.16037 | 16.83840 | 1147 ft | 179 kts | 256° |
| 2026-04-22 20:15 | 41.15618 | 16.82369 | 908 ft | 162 kts | 254° |
| 2026-04-22 20:15 | 41.15242 | 16.81051 | 724 ft | 147 kts | 257° |
| 2026-04-22 20:15 | 41.14885 | 16.79788 | 504 ft | 146 kts | 253° |
| 2026-04-22 20:16 | 41.14545 | 16.78539 | 338 ft | 142 kts | 256° |
| 2026-04-22 20:16 | 41.14200 | 16.77320 | 165 ft | 139 kts | 258° |
| 2026-04-22 20:16 | 41.13893 | 16.76200 | 126 ft | 110 kts | 250° |
| 2026-04-22 20:16 | 41.13751 | 16.75760 | 139 ft | 19 kts | 222° |
| 2026-04-22 20:17 | 41.13667 | 16.75707 | 141 ft | 7 kts | 143° |
| 2026-04-22 20:17 | 41.13657 | 16.75782 | 141 ft | 10 kts | 99° |
| 2026-04-22 20:17 | 41.13640 | 16.75890 | 137 ft | 13 kts | 103° |
| 2026-04-22 20:17 | 41.13634 | 16.75980 | 136 ft | 4 kts | 81° |
| 2026-04-22 20:18 | 41.13628 | 16.76032 | 136 ft | 7 kts | 118° |
| 2026-04-22 20:18 | 41.13585 | 16.76083 | 136 ft | 9 kts | 142° |
| 2026-04-22 20:18 | 41.13553 | 16.76159 | 136 ft | 11 kts | 80° |
| 2026-04-22 20:18 | 41.13574 | 16.76246 | 136 ft | 6 kts | 74° |
| 2026-04-22 20:19 | 41.13552 | 16.76273 | 136 ft | 4 kts | 161° |
| 2026-04-22 20:19 | 41.13519 | 16.76290 | 136 ft | 3 kts | 159° |
| 2026-04-22 20:19 | 41.13508 | 16.76295 | 136 ft | 0 kts | 160° |